sensor_id;sensor_type;location;lat;lon;timestamp;pressure;altitude;pressure_sealevel;temperature;humidity
4836;BME280;2432;51.226;6.904;2022-08-06T00:00:16;101779.66;;;15.72;90.97
4836;BME280;2432;51.226;6.904;2022-08-06T00:02:51;101783.16;;;15.74;91.33
4836;BME280;2432;51.226;6.904;2022-08-06T00:05:18;101787.00;;;15.58;91.51
4836;BME280;2432;51.226;6.904;2022-08-06T00:07:55;101788.81;;;15.55;92.43
4836;BME280;2432;51.226;6.904;2022-08-06T00:10:24;101787.25;;;15.45;91.85
4836;BME280;2432;51.226;6.904;2022-08-06T00:12:56;101791.00;;;15.35;91.60
4836;BME280;2432;51.226;6.904;2022-08-06T00:15:23;101787.81;;;15.21;93.22
4836;BME280;2432;51.226;6.904;2022-08-06T00:18:10;101799.53;;;15.06;94.00
4836;BME280;2432;51.226;6.904;2022-08-06T00:20:38;101796.88;;;15.06;95.62
4836;BME280;2432;51.226;6.904;2022-08-06T00:23:08;101793.31;;;15.09;95.26
4836;BME280;2432;51.226;6.904;2022-08-06T00:25:41;101796.00;;;15.06;96.23
4836;BME280;2432;51.226;6.904;2022-08-06T00:28:17;101802.91;;;15.11;96.35
4836;BME280;2432;51.226;6.904;2022-08-06T00:30:45;101798.66;;;15.06;97.25
4836;BME280;2432;51.226;6.904;2022-08-06T00:33:12;101801.41;;;14.99;98.62
4836;BME280;2432;51.226;6.904;2022-08-06T00:35:41;101798.75;;;14.99;97.59
4836;BME280;2432;51.226;6.904;2022-08-06T00:38:11;101801.44;;;14.98;97.84
4836;BME280;2432;51.226;6.904;2022-08-06T00:40:40;101812.03;;;14.96;97.76
4836;BME280;2432;51.226;6.904;2022-08-06T00:43:25;101804.22;;;14.90;98.20
4836;BME280;2432;51.226;6.904;2022-08-06T00:45:56;101802.59;;;14.83;98.12
4836;BME280;2432;51.226;6.904;2022-08-06T00:48:24;101802.66;;;14.80;98.19
4836;BME280;2432;51.226;6.904;2022-08-06T00:51:10;101808.97;;;14.72;97.82
4836;BME280;2432;51.226;6.904;2022-08-06T00:53:44;101810.75;;;14.69;98.03
4836;BME280;2432;51.226;6.904;2022-08-06T00:56:13;101809.91;;;14.69;98.11
4836;BME280;2432;51.226;6.904;2022-08-06T00:58:40;101813.56;;;14.59;97.64
4836;BME280;2432;51.226;6.904;2022-08-06T01:01:09;101805.97;;;14.39;99.05
4836;BME280;2432;51.226;6.904;2022-08-06T01:03:44;101807.91;;;14.29;100.00
4836;BME280;2432;51.226;6.904;2022-08-06T01:06:18;101812.81;;;14.51;100.00
4836;BME280;2432;51.226;6.904;2022-08-06T01:09:05;101815.53;;;14.48;99.68
4836;BME280;2432;51.226;6.904;2022-08-06T01:11:32;101821.72;;;14.42;100.00
4836;BME280;2432;51.226;6.904;2022-08-06T01:14:01;101823.50;;;14.41;100.00
4836;BME280;2432;51.226;6.904;2022-08-06T01:16:51;101828.06;;;14.30;100.00
4836;BME280;2432;51.226;6.904;2022-08-06T01:19:50;101830.75;;;14.29;100.00
4836;BME280;2432;51.226;6.904;2022-08-06T01:31:32;101832.63;;;14.21;99.48
4836;BME280;2432;51.226;6.904;2022-08-06T01:34:07;101835.78;;;13.85;100.00
4836;BME280;2432;51.226;6.904;2022-08-06T01:36:51;101831.56;;;13.72;100.00
4836;BME280;2432;51.226;6.904;2022-08-06T01:39:21;101832.41;;;13.76;100.00
4836;BME280;2432;51.226;6.904;2022-08-06T01:42:10;101839.38;;;13.81;100.00
4836;BME280;2432;51.226;6.904;2022-08-06T01:44:40;101833.25;;;13.78;100.00
4836;BME280;2432;51.226;6.904;2022-08-06T01:47:12;101841.22;;;13.73;100.00
4836;BME280;2432;51.226;6.904;2022-08-06T01:49:45;101843.03;;;13.68;100.00
4836;BME280;2432;51.226;6.904;2022-08-06T01:52:32;101844.78;;;13.69;100.00
4836;BME280;2432;51.226;6.904;2022-08-06T01:55:07;101849.25;;;13.64;100.00
4836;BME280;2432;51.226;6.904;2022-08-06T01:57:41;101858.91;;;13.62;100.00
4836;BME280;2432;51.226;6.904;2022-08-06T02:00:30;101858.91;;;13.62;100.00
4836;BME280;2432;51.226;6.904;2022-08-06T02:03:00;101859.81;;;13.60;100.00
4836;BME280;2432;51.226;6.904;2022-08-06T02:05:30;101865.06;;;13.61;100.00
4836;BME280;2432;51.226;6.904;2022-08-06T02:07:58;101861.66;;;13.51;100.00
4836;BME280;2432;51.226;6.904;2022-08-06T02:10:47;101856.28;;;13.61;100.00
4836;BME280;2432;51.226;6.904;2022-08-06T02:13:17;101865.91;;;13.63;100.00
4836;BME280;2432;51.226;6.904;2022-08-06T02:15:46;101865.16;;;13.53;100.00
4836;BME280;2432;51.226;6.904;2022-08-06T02:18:27;101868.06;;;13.31;100.00
4836;BME280;2432;51.226;6.904;2022-08-06T02:21:06;101864.47;;;13.36;100.00
4836;BME280;2432;51.226;6.904;2022-08-06T02:23:54;101870.69;;;13.29;100.00
4836;BME280;2432;51.226;6.904;2022-08-06T02:26:24;101871.63;;;13.25;100.00
4836;BME280;2432;51.226;6.904;2022-08-06T02:28:58;101879.47;;;13.31;100.00
4836;BME280;2432;51.226;6.904;2022-08-06T02:31:25;101873.22;;;13.37;100.00
4836;BME280;2432;51.226;6.904;2022-08-06T02:33:52;101868.38;;;12.97;100.00
4836;BME280;2432;51.226;6.904;2022-08-06T02:36:45;101866.50;;;13.08;100.00
4836;BME280;2432;51.226;6.904;2022-08-06T02:39:26;101874.41;;;13.08;100.00
4836;BME280;2432;51.226;6.904;2022-08-06T02:47:39;101885.75;;;13.10;100.00
4836;BME280;2432;51.226;6.904;2022-08-06T02:50:41;101887.53;;;13.08;100.00
4836;BME280;2432;51.226;6.904;2022-08-06T02:53:15;101886.69;;;13.06;100.00
4836;BME280;2432;51.226;6.904;2022-08-06T02:56:04;101886.63;;;13.11;100.00
4836;BME280;2432;51.226;6.904;2022-08-06T02:58:35;101889.25;;;13.11;100.00
4836;BME280;2432;51.226;6.904;2022-08-06T03:01:08;101883.16;;;13.09;100.00
4836;BME280;2432;51.226;6.904;2022-08-06T03:03:37;101883.22;;;13.04;100.00
4836;BME280;2432;51.226;6.904;2022-08-06T03:06:23;101891.91;;;13.09;100.00
4836;BME280;2432;51.226;6.904;2022-08-06T03:08:53;101891.97;;;13.01;100.00
4836;BME280;2432;51.226;6.904;2022-08-06T03:11:22;101887.69;;;12.96;100.00
4836;BME280;2432;51.226;6.904;2022-08-06T03:13:51;101881.66;;;12.82;100.00
4836;BME280;2432;51.226;6.904;2022-08-06T03:16:19;101893.81;;;12.95;100.00
4836;BME280;2432;51.226;6.904;2022-08-06T03:18:49;101895.63;;;12.88;100.00
4836;BME280;2432;51.226;6.904;2022-08-06T03:21:38;101888.66;;;12.83;100.00
4836;BME280;2432;51.226;6.904;2022-08-06T03:24:06;101892.09;;;12.89;100.00
4836;BME280;2432;51.226;6.904;2022-08-06T03:26:36;101888.69;;;12.77;100.00
4836;BME280;2432;51.226;6.904;2022-08-06T03:29:04;101895.81;;;12.68;100.00
4836;BME280;2432;51.226;6.904;2022-08-06T03:31:34;101896.75;;;12.60;100.00
4836;BME280;2432;51.226;6.904;2022-08-06T03:34:04;101899.41;;;12.54;100.00
4836;BME280;2432;51.226;6.904;2022-08-06T03:36:31;101896.03;;;12.33;100.00
4836;BME280;2432;51.226;6.904;2022-08-06T03:39:03;101896.91;;;12.37;100.00
4836;BME280;2432;51.226;6.904;2022-08-06T03:41:35;101903.84;;;12.47;100.00
4836;BME280;2432;51.226;6.904;2022-08-06T03:44:22;101897.50;;;12.72;100.00
4836;BME280;2432;51.226;6.904;2022-08-06T03:47:03;101897.50;;;12.77;100.00
4836;BME280;2432;51.226;6.904;2022-08-06T03:49:40;101902.78;;;12.71;100.00
4836;BME280;2432;51.226;6.904;2022-08-06T03:52:11;101905.50;;;12.60;100.00
4836;BME280;2432;51.226;6.904;2022-08-06T03:54:46;101905.50;;;12.57;100.00
4836;BME280;2432;51.226;6.904;2022-08-06T03:57:15;101913.47;;;12.51;100.00
4836;BME280;2432;51.226;6.904;2022-08-06T03:59:50;101909.13;;;12.41;100.00
4836;BME280;2432;51.226;6.904;2022-08-06T04:02:39;101917.88;;;12.44;100.00
4836;BME280;2432;51.226;6.904;2022-08-06T04:05:17;101918.72;;;12.51;100.00
4836;BME280;2432;51.226;6.904;2022-08-06T04:07:49;101918.59;;;12.65;100.00
4836;BME280;2432;51.226;6.904;2022-08-06T04:10:23;101924.66;;;12.73;100.00
4836;BME280;2432;51.226;6.904;2022-08-06T04:13:02;101922.09;;;12.64;100.00
4836;BME280;2432;51.226;6.904;2022-08-06T04:15:51;101922.19;;;12.55;100.00
4836;BME280;2432;51.226;6.904;2022-08-06T04:18:32;101928.34;;;12.52;100.00
4836;BME280;2432;51.226;6.904;2022-08-06T04:21:15;101927.44;;;12.55;100.00
4836;BME280;2432;51.226;6.904;2022-08-06T04:23:46;101923.06;;;12.54;100.00
4836;BME280;2432;51.226;6.904;2022-08-06T04:26:15;101929.22;;;12.50;100.00
4836;BME280;2432;51.226;6.904;2022-08-06T04:28:46;101931.84;;;12.51;100.00
4836;BME280;2432;51.226;6.904;2022-08-06T04:31:25;101930.13;;;12.44;100.00
4836;BME280;2432;51.226;6.904;2022-08-06T04:34:13;101938.03;;;12.42;100.00
4836;BME280;2432;51.226;6.904;2022-08-06T04:36:42;101932.69;;;12.55;100.00
4836;BME280;2432;51.226;6.904;2022-08-06T04:39:20;101941.47;;;12.51;100.00
4836;BME280;2432;51.226;6.904;2022-08-06T04:42:03;101943.28;;;12.42;100.00
4836;BME280;2432;51.226;6.904;2022-08-06T04:44:31;101943.31;;;12.38;100.00
4836;BME280;2432;51.226;6.904;2022-08-06T04:46:58;101945.97;;;12.35;100.00
4836;BME280;2432;51.226;6.904;2022-08-06T04:49:25;101948.53;;;12.39;100.00
4836;BME280;2432;51.226;6.904;2022-08-06T04:52:23;101959.00;;;12.49;100.00
4836;BME280;2432;51.226;6.904;2022-08-06T04:55:10;101966.03;;;12.45;100.00
4836;BME280;2432;51.226;6.904;2022-08-06T04:57:49;101965.19;;;12.43;100.00
4836;BME280;2432;51.226;6.904;2022-08-06T05:00:35;101969.53;;;12.41;100.00
4836;BME280;2432;51.226;6.904;2022-08-06T05:03:22;101964.22;;;12.50;100.00
4836;BME280;2432;51.226;6.904;2022-08-06T05:06:22;101974.84;;;12.36;100.00
4836;BME280;2432;51.226;6.904;2022-08-06T05:08:53;101967.03;;;12.21;100.00
4836;BME280;2432;51.226;6.904;2022-08-06T05:11:24;101969.66;;;12.23;100.00
4836;BME280;2432;51.226;6.904;2022-08-06T05:13:58;101972.19;;;12.39;100.00
4836;BME280;2432;51.226;6.904;2022-08-06T05:16:36;101970.34;;;12.55;100.00
4836;BME280;2432;51.226;6.904;2022-08-06T05:19:33;101974.69;;;12.62;100.00
4836;BME280;2432;51.226;6.904;2022-08-06T05:22:02;101970.25;;;12.67;100.00
4836;BME280;2432;51.226;6.904;2022-08-06T05:24:39;101973.78;;;12.65;100.00
4836;BME280;2432;51.226;6.904;2022-08-06T05:27:26;101979.00;;;12.69;100.00
4836;BME280;2432;51.226;6.904;2022-08-06T05:30:13;101976.38;;;12.68;100.00
4836;BME280;2432;51.226;6.904;2022-08-06T05:32:44;101980.72;;;12.73;100.00
4836;BME280;2432;51.226;6.904;2022-08-06T05:35:16;101982.47;;;12.78;100.00
4836;BME280;2432;51.226;6.904;2022-08-06T05:37:43;101992.97;;;12.78;100.00
4836;BME280;2432;51.226;6.904;2022-08-06T05:40:29;101992.03;;;12.85;100.00
4836;BME280;2432;51.226;6.904;2022-08-06T05:43:19;101988.53;;;12.84;100.00
4836;BME280;2432;51.226;6.904;2022-08-06T05:45:47;101993.72;;;12.96;100.00
4836;BME280;2432;51.226;6.904;2022-08-06T05:48:17;101992.75;;;13.05;100.00
4836;BME280;2432;51.226;6.904;2022-08-06T05:51:02;101999.66;;;13.17;100.00
4836;BME280;2432;51.226;6.904;2022-08-06T05:53:40;101994.38;;;13.24;100.00
4836;BME280;2432;51.226;6.904;2022-08-06T05:56:32;102003.94;;;13.33;100.00
4836;BME280;2432;51.226;6.904;2022-08-06T05:59:11;102002.09;;;13.43;100.00
4836;BME280;2432;51.226;6.904;2022-08-06T06:01:58;101990.56;;;13.56;100.00
4836;BME280;2432;51.226;6.904;2022-08-06T06:04:27;102000.09;;;13.68;100.00
4836;BME280;2432;51.226;6.904;2022-08-06T06:06:59;101994.75;;;13.75;100.00
4836;BME280;2432;51.226;6.904;2022-08-06T06:09:30;102006.91;;;13.87;100.00
4836;BME280;2432;51.226;6.904;2022-08-06T06:12:17;102001.63;;;13.90;100.00
4836;BME280;2432;51.226;6.904;2022-08-06T06:14:57;102003.25;;;13.97;100.00
4836;BME280;2432;51.226;6.904;2022-08-06T06:17:47;102012.88;;;14.03;100.00
4836;BME280;2432;51.226;6.904;2022-08-06T06:20:34;102006.66;;;14.08;100.00
4836;BME280;2432;51.226;6.904;2022-08-06T06:23:51;102011.84;;;14.14;100.00
4836;BME280;2432;51.226;6.904;2022-08-06T06:26:42;102006.47;;;14.22;100.00
4836;BME280;2432;51.226;6.904;2022-08-06T06:32:22;102003.69;;;14.34;100.00
4836;BME280;2432;51.226;6.904;2022-08-06T06:40:33;102008.75;;;14.53;100.00
4836;BME280;2432;51.226;6.904;2022-08-06T06:43:04;102010.41;;;14.60;100.00
4836;BME280;2432;51.226;6.904;2022-08-06T06:45:37;102017.38;;;14.64;100.00
4836;BME280;2432;51.226;6.904;2022-08-06T06:48:38;102021.63;;;14.73;100.00
4836;BME280;2432;51.226;6.904;2022-08-06T06:51:25;102015.44;;;14.75;100.00
4836;BME280;2432;51.226;6.904;2022-08-06T06:54:20;102025.84;;;14.84;100.00
4836;BME280;2432;51.226;6.904;2022-08-06T06:57:03;102025.81;;;14.87;100.00
4836;BME280;2432;51.226;6.904;2022-08-06T06:59:38;102027.47;;;14.94;100.00
4836;BME280;2432;51.226;6.904;2022-08-06T07:02:27;102023.88;;;14.98;100.00
4836;BME280;2432;51.226;6.904;2022-08-06T07:05:00;102029.06;;;15.05;100.00
4836;BME280;2432;51.226;6.904;2022-08-06T07:07:31;102033.22;;;15.18;100.00
4836;BME280;2432;51.226;6.904;2022-08-06T07:10:00;102027.91;;;15.19;100.00
4836;BME280;2432;51.226;6.904;2022-08-06T07:12:30;102030.59;;;15.18;100.00
4836;BME280;2432;51.226;6.904;2022-08-06T07:15:01;102034.91;;;15.23;100.00
4836;BME280;2432;51.226;6.904;2022-08-06T07:17:31;102041.03;;;15.25;100.00
4836;BME280;2432;51.226;6.904;2022-08-06T07:20:16;102042.72;;;15.28;99.88
4836;BME280;2432;51.226;6.904;2022-08-06T07:22:46;102042.78;;;15.25;96.96
4836;BME280;2432;51.226;6.904;2022-08-06T07:25:37;102049.69;;;15.34;97.67
4836;BME280;2432;51.226;6.904;2022-08-06T07:28:07;102051.38;;;15.39;96.72
4836;BME280;2432;51.226;6.904;2022-08-06T07:30:38;102053.00;;;15.46;95.46
4836;BME280;2432;51.226;6.904;2022-08-06T07:33:09;102051.22;;;15.48;93.58
4836;BME280;2432;51.226;6.904;2022-08-06T07:35:45;102053.78;;;15.51;94.30
4836;BME280;2432;51.226;6.904;2022-08-06T07:38:16;102051.06;;;15.54;94.17
4836;BME280;2432;51.226;6.904;2022-08-06T07:40:53;102056.34;;;15.54;92.53
4836;BME280;2432;51.226;6.904;2022-08-06T07:43:27;102058.91;;;15.62;91.63
4836;BME280;2432;51.226;6.904;2022-08-06T07:46:02;102055.34;;;15.63;91.63
4836;BME280;2432;51.226;6.904;2022-08-06T07:48:46;102058.94;;;15.61;89.67
4836;BME280;2432;51.226;6.904;2022-08-06T07:51:19;102051.75;;;15.69;90.71
4836;BME280;2432;51.226;6.904;2022-08-06T07:54:00;102054.31;;;15.73;89.23
4836;BME280;2432;51.226;6.904;2022-08-06T07:56:37;102054.28;;;15.75;89.58
4836;BME280;2432;51.226;6.904;2022-08-06T07:59:04;102061.28;;;15.77;90.97
4836;BME280;2432;51.226;6.904;2022-08-06T08:01:38;102059.56;;;15.75;91.22
4836;BME280;2432;51.226;6.904;2022-08-06T08:04:15;102066.53;;;15.79;86.84
4836;BME280;2432;51.226;6.904;2022-08-06T08:07:20;102054.91;;;15.88;84.74
4836;BME280;2432;51.226;6.904;2022-08-06T08:10:03;102063.75;;;15.87;85.92
4836;BME280;2432;51.226;6.904;2022-08-06T08:12:31;102061.81;;;15.95;83.21
4836;BME280;2432;51.226;6.904;2022-08-06T08:15:04;102062.59;;;16.01;81.48
4836;BME280;2432;51.226;6.904;2022-08-06T08:17:44;102065.25;;;15.98;81.14
4836;BME280;2432;51.226;6.904;2022-08-06T08:20:25;102067.75;;;16.07;80.94
4836;BME280;2432;51.226;6.904;2022-08-06T08:23:01;102066.84;;;16.08;79.46
4836;BME280;2432;51.226;6.904;2022-08-06T08:25:28;102062.16;;;16.23;79.36
4836;BME280;2432;51.226;6.904;2022-08-06T08:28:09;102057.81;;;16.20;81.90
4836;BME280;2432;51.226;6.904;2022-08-06T08:30:41;102056.94;;;16.20;84.15
4836;BME280;2432;51.226;6.904;2022-08-06T08:33:12;102056.84;;;16.23;81.79
4836;BME280;2432;51.226;6.904;2022-08-06T08:35:43;102054.06;;;16.30;80.08
4836;BME280;2432;51.226;6.904;2022-08-06T08:38:26;102062.78;;;16.35;80.94
4836;BME280;2432;51.226;6.904;2022-08-06T08:40:55;102060.97;;;16.37;80.85
4836;BME280;2432;51.226;6.904;2022-08-06T08:43:26;102060.97;;;16.37;79.55
4836;BME280;2432;51.226;6.904;2022-08-06T08:46:16;102056.44;;;16.44;77.12
4836;BME280;2432;51.226;6.904;2022-08-06T08:49:00;102065.31;;;16.40;78.95
4836;BME280;2432;51.226;6.904;2022-08-06T08:51:27;102055.75;;;16.34;78.96
4836;BME280;2432;51.226;6.904;2022-08-06T08:53:55;102046.06;;;16.35;78.21
4836;BME280;2432;51.226;6.904;2022-08-06T08:56:24;102057.34;;;16.43;76.83
4836;BME280;2432;51.226;6.904;2022-08-06T08:59:11;102056.34;;;16.47;76.02
4836;BME280;2432;51.226;6.904;2022-08-06T09:01:59;102051.97;;;16.46;75.84
4836;BME280;2432;51.226;6.904;2022-08-06T09:04:26;102063.47;;;16.45;78.14
4836;BME280;2432;51.226;6.904;2022-08-06T09:06:54;102065.78;;;16.59;74.75
4836;BME280;2432;51.226;6.904;2022-08-06T09:09:21;102063.84;;;16.67;71.26
4836;BME280;2432;51.226;6.904;2022-08-06T09:11:58;102064.84;;;16.63;74.33
4836;BME280;2432;51.226;6.904;2022-08-06T09:14:44;102062.31;;;16.57;75.43
4836;BME280;2432;51.226;6.904;2022-08-06T09:17:13;102061.53;;;16.53;77.29
4836;BME280;2432;51.226;6.904;2022-08-06T09:19:43;102071.28;;;16.51;73.31
4836;BME280;2432;51.226;6.904;2022-08-06T09:22:10;102067.72;;;16.52;73.33
4836;BME280;2432;51.226;6.904;2022-08-06T09:24:38;102053.69;;;16.49;71.97
4836;BME280;2432;51.226;6.904;2022-08-06T09:27:16;102068.63;;;16.51;72.51
4836;BME280;2432;51.226;6.904;2022-08-06T09:30:05;102068.22;;;16.71;69.97
4836;BME280;2432;51.226;6.904;2022-08-06T09:32:54;102068.66;;;16.90;69.46
4836;BME280;2432;51.226;6.904;2022-08-06T09:35:29;102067.53;;;17.00;67.24
4836;BME280;2432;51.226;6.904;2022-08-06T09:38:12;102068.50;;;16.98;67.02
4836;BME280;2432;51.226;6.904;2022-08-06T09:41:02;102073.97;;;16.90;66.40
4836;BME280;2432;51.226;6.904;2022-08-06T09:43:33;102073.13;;;16.88;65.74
4836;BME280;2432;51.226;6.904;2022-08-06T09:46:39;102063.53;;;16.82;67.91
4836;BME280;2432;51.226;6.904;2022-08-06T09:49:08;102065.19;;;16.88;66.96
4836;BME280;2432;51.226;6.904;2022-08-06T09:52:16;102069.47;;;16.93;67.12
4836;BME280;2432;51.226;6.904;2022-08-06T09:54:45;102063.94;;;17.03;66.22
4836;BME280;2432;51.226;6.904;2022-08-06T09:57:23;102071.94;;;17.01;68.08
4836;BME280;2432;51.226;6.904;2022-08-06T10:00:03;102053.41;;;17.01;66.65
4836;BME280;2432;51.226;6.904;2022-08-06T10:02:41;102056.81;;;17.06;63.42
4836;BME280;2432;51.226;6.904;2022-08-06T10:05:16;102061.09;;;17.12;64.39
4836;BME280;2432;51.226;6.904;2022-08-06T10:07:46;102057.44;;;17.17;65.01
4836;BME280;2432;51.226;6.904;2022-08-06T10:10:19;102064.97;;;17.34;63.41
4836;BME280;2432;51.226;6.904;2022-08-06T10:13:22;102073.31;;;17.53;62.82
4836;BME280;2432;51.226;6.904;2022-08-06T10:15:53;102070.59;;;17.55;62.69
4836;BME280;2432;51.226;6.904;2022-08-06T10:18:47;102073.25;;;17.55;63.12
4836;BME280;2432;51.226;6.904;2022-08-06T10:21:33;102075.16;;;17.49;61.64
4836;BME280;2432;51.226;6.904;2022-08-06T10:24:12;102072.47;;;17.51;62.58
4836;BME280;2432;51.226;6.904;2022-08-06T10:27:05;102077.44;;;17.65;59.28
4836;BME280;2432;51.226;6.904;2022-08-06T10:29:46;102072.03;;;17.68;59.60
4836;BME280;2432;51.226;6.904;2022-08-06T10:32:17;102072.69;;;17.77;59.73
4836;BME280;2432;51.226;6.904;2022-08-06T10:34:57;102077.91;;;17.80;57.71
4836;BME280;2432;51.226;6.904;2022-08-06T10:37:39;102071.88;;;17.75;59.97
4836;BME280;2432;51.226;6.904;2022-08-06T10:40:16;102065.81;;;17.70;60.29
4836;BME280;2432;51.226;6.904;2022-08-06T10:42:58;102063.94;;;17.75;59.48
4836;BME280;2432;51.226;6.904;2022-08-06T10:45:29;102060.38;;;17.76;61.34
4836;BME280;2432;51.226;6.904;2022-08-06T10:48:15;102052.31;;;17.79;62.71
4836;BME280;2432;51.226;6.904;2022-08-06T10:51:03;102060.22;;;17.83;59.84
4836;BME280;2432;51.226;6.904;2022-08-06T10:53:33;102055.69;;;17.86;58.11
4836;BME280;2432;51.226;6.904;2022-08-06T10:56:20;102049.63;;;17.83;61.35
4836;BME280;2432;51.226;6.904;2022-08-06T10:59:05;102054.63;;;17.93;59.75
4836;BME280;2432;51.226;6.904;2022-08-06T11:01:46;102047.16;;;18.06;60.06
4836;BME280;2432;51.226;6.904;2022-08-06T11:04:57;102054.25;;;18.05;60.21
4836;BME280;2432;51.226;6.904;2022-08-06T11:07:35;102041.34;;;17.93;58.29
4836;BME280;2432;51.226;6.904;2022-08-06T11:16:03;102039.00;;;17.83;59.39
4836;BME280;2432;51.226;6.904;2022-08-06T11:18:30;102036.25;;;17.86;59.74
4836;BME280;2432;51.226;6.904;2022-08-06T11:20:58;102043.91;;;17.96;59.72
4836;BME280;2432;51.226;6.904;2022-08-06T11:23:28;102042.72;;;18.08;60.77
4836;BME280;2432;51.226;6.904;2022-08-06T11:26:41;102036.22;;;18.18;59.58
4836;BME280;2432;51.226;6.904;2022-08-06T11:29:11;102031.16;;;18.40;61.04
4836;BME280;2432;51.226;6.904;2022-08-06T11:31:43;102032.34;;;18.59;59.33
4836;BME280;2432;51.226;6.904;2022-08-06T11:34:40;102034.72;;;18.70;56.99
4836;BME280;2432;51.226;6.904;2022-08-06T11:37:42;102030.31;;;18.69;52.98
4836;BME280;2432;51.226;6.904;2022-08-06T11:40:58;102028.53;;;18.70;54.26
4836;BME280;2432;51.226;6.904;2022-08-06T11:46:32;102030.97;;;18.76;56.30
4836;BME280;2432;51.226;6.904;2022-08-06T11:51:45;102023.59;;;19.13;55.05
4836;BME280;2432;51.226;6.904;2022-08-06T11:54:31;102026.59;;;19.29;50.67
4836;BME280;2432;51.226;6.904;2022-08-06T11:59:44;102011.56;;;19.28;49.68
4836;BME280;2432;51.226;6.904;2022-08-06T12:02:14;102009.75;;;19.30;49.51
4836;BME280;2432;51.226;6.904;2022-08-06T12:04:43;102016.94;;;19.52;53.74
4836;BME280;2432;51.226;6.904;2022-08-06T12:09:59;102017.16;;;19.20;51.52
4836;BME280;2432;51.226;6.904;2022-08-06T12:18:13;102008.47;;;19.67;50.39
4836;BME280;2432;51.226;6.904;2022-08-06T12:20:52;102003.09;;;20.17;54.86
4836;BME280;2432;51.226;6.904;2022-08-06T12:23:23;102002.91;;;20.68;56.90
4836;BME280;2432;51.226;6.904;2022-08-06T12:26:10;102004.06;;;20.83;48.49
4836;BME280;2432;51.226;6.904;2022-08-06T12:28:37;102002.66;;;20.96;50.00
4836;BME280;2432;51.226;6.904;2022-08-06T12:31:04;101994.59;;;20.54;51.66
4836;BME280;2432;51.226;6.904;2022-08-06T12:33:51;101997.88;;;20.37;50.17
4836;BME280;2432;51.226;6.904;2022-08-06T12:36:17;101994.19;;;20.18;50.02
4836;BME280;2432;51.226;6.904;2022-08-06T12:39:01;101991.06;;;20.07;47.81
4836;BME280;2432;51.226;6.904;2022-08-06T12:41:34;101989.06;;;19.90;50.96
4836;BME280;2432;51.226;6.904;2022-08-06T12:44:12;101986.72;;;20.27;46.78
4836;BME280;2432;51.226;6.904;2022-08-06T12:46:43;101982.28;;;21.15;48.30
4836;BME280;2432;51.226;6.904;2022-08-06T12:49:10;101990.16;;;21.80;50.59
4836;BME280;2432;51.226;6.904;2022-08-06T12:51:36;101990.03;;;21.22;49.43
4836;BME280;2432;51.226;6.904;2022-08-06T12:54:06;101989.78;;;21.68;51.77
4836;BME280;2432;51.226;6.904;2022-08-06T12:56:36;101992.94;;;22.36;52.54
4836;BME280;2432;51.226;6.904;2022-08-06T12:59:08;101984.00;;;22.73;46.46
4836;BME280;2432;51.226;6.904;2022-08-06T13:01:50;101979.47;;;23.11;47.35
4836;BME280;2432;51.226;6.904;2022-08-06T13:04:37;101977.66;;;23.29;47.11
4836;BME280;2432;51.226;6.904;2022-08-06T13:07:07;101971.00;;;23.54;46.65
4836;BME280;2432;51.226;6.904;2022-08-06T13:09:41;101965.16;;;23.64;44.10
4836;BME280;2432;51.226;6.904;2022-08-06T13:12:29;101960.72;;;23.81;43.63
4836;BME280;2432;51.226;6.904;2022-08-06T13:15:15;101956.63;;;23.74;43.18
4836;BME280;2432;51.226;6.904;2022-08-06T13:18:12;101953.59;;;23.64;45.32
4836;BME280;2432;51.226;6.904;2022-08-06T13:21:00;101955.94;;;23.35;44.04
4836;BME280;2432;51.226;6.904;2022-08-06T13:26:18;101971.00;;;22.11;43.70
4836;BME280;2432;51.226;6.904;2022-08-06T13:29:23;101964.75;;;21.32;46.29
4836;BME280;2432;51.226;6.904;2022-08-06T13:32:12;101969.97;;;20.71;45.25
4836;BME280;2432;51.226;6.904;2022-08-06T13:35:04;101963.16;;;20.40;45.18
4836;BME280;2432;51.226;6.904;2022-08-06T13:37:50;101962.91;;;20.24;45.53
4836;BME280;2432;51.226;6.904;2022-08-06T13:40:43;101955.56;;;20.08;46.66
4836;BME280;2432;51.226;6.904;2022-08-06T13:43:18;101955.81;;;20.01;48.18
4836;BME280;2432;51.226;6.904;2022-08-06T13:46:14;101958.25;;;20.08;46.05
4836;BME280;2432;51.226;6.904;2022-08-06T13:48:54;101959.34;;;20.91;44.98
4836;BME280;2432;51.226;6.904;2022-08-06T13:51:24;101955.50;;;21.40;44.13
4836;BME280;2432;51.226;6.904;2022-08-06T13:53:54;101954.34;;;21.66;43.10
4836;BME280;2432;51.226;6.904;2022-08-06T13:56:24;101933.25;;;21.99;44.01
4836;BME280;2432;51.226;6.904;2022-08-06T13:58:58;101939.56;;;22.17;42.57
4836;BME280;2432;51.226;6.904;2022-08-06T14:01:26;101931.56;;;21.97;43.16
4836;BME280;2432;51.226;6.904;2022-08-06T14:04:12;101936.78;;;22.00;42.44
4836;BME280;2432;51.226;6.904;2022-08-06T14:06:41;101928.47;;;22.06;41.74
4836;BME280;2432;51.226;6.904;2022-08-06T14:09:12;101927.28;;;22.13;42.95
4836;BME280;2432;51.226;6.904;2022-08-06T14:11:52;101937.34;;;22.08;43.21
4836;BME280;2432;51.226;6.904;2022-08-06T14:14:22;101915.38;;;22.20;44.30
4836;BME280;2432;51.226;6.904;2022-08-06T14:16:52;101914.59;;;22.18;41.67
4836;BME280;2432;51.226;6.904;2022-08-06T14:19:19;101920.53;;;22.25;43.63
4836;BME280;2432;51.226;6.904;2022-08-06T14:22:06;101917.34;;;22.17;42.12
4836;BME280;2432;51.226;6.904;2022-08-06T14:24:33;101926.31;;;22.16;44.75
4836;BME280;2432;51.226;6.904;2022-08-06T14:27:06;101925.09;;;22.02;46.46
4836;BME280;2432;51.226;6.904;2022-08-06T14:29:41;101917.25;;;21.99;42.42
4836;BME280;2432;51.226;6.904;2022-08-06T14:32:28;101918.75;;;22.05;44.59
4836;BME280;2432;51.226;6.904;2022-08-06T14:34:54;101912.44;;;22.08;42.45
4836;BME280;2432;51.226;6.904;2022-08-06T14:37:22;101910.56;;;22.10;45.32
4836;BME280;2432;51.226;6.904;2022-08-06T14:40:09;101907.28;;;22.03;45.20
4836;BME280;2432;51.226;6.904;2022-08-06T14:42:37;101916.31;;;22.00;45.29
4836;BME280;2432;51.226;6.904;2022-08-06T14:45:23;101910.69;;;22.07;46.61
4836;BME280;2432;51.226;6.904;2022-08-06T14:47:55;101910.56;;;22.10;47.18
4836;BME280;2432;51.226;6.904;2022-08-06T14:50:26;101904.44;;;22.08;45.54